createdAt,value
2018-06-29T00:02:16.785Z,6.27
2018-06-29T00:04:44.634Z,6.80
2018-06-29T00:07:12.595Z,6.43
2018-06-29T00:09:40.324Z,6.00
2018-06-29T00:12:08.076Z,5.67
2018-06-29T00:14:36.072Z,6.17
2018-06-29T00:17:03.983Z,6.40
2018-06-29T00:19:31.823Z,5.80
2018-06-29T00:21:59.595Z,7.00
2018-06-29T00:24:27.418Z,6.97
2018-06-29T00:26:55.285Z,7.47
2018-06-29T00:29:23.142Z,8.60
2018-06-29T00:31:51.014Z,8.67
2018-06-29T00:34:18.858Z,7.60
2018-06-29T00:36:46.715Z,7.13
2018-06-29T00:39:14.634Z,7.13
2018-06-29T00:41:42.442Z,6.77
2018-06-29T00:44:10.387Z,7.83
2018-06-29T00:46:38.094Z,7.47
2018-06-29T00:49:05.819Z,8.40
2018-06-29T00:51:33.562Z,7.90
2018-06-29T00:54:01.325Z,7.30
2018-06-29T00:56:29.236Z,8.53
2018-06-29T00:58:57.237Z,9.20
2018-06-29T01:01:24.967Z,9.17
2018-06-29T01:03:52.814Z,8.73
2018-06-29T01:06:20.769Z,9.67
2018-06-29T01:08:48.707Z,10.17
2018-06-29T01:11:16.444Z,11.83
2018-06-29T01:13:44.366Z,11.03
2018-06-29T01:16:12.313Z,10.17
2018-06-29T01:18:40.264Z,9.20
2018-06-29T01:21:08.197Z,9.23
2018-06-29T01:23:36.099Z,8.80
2018-06-29T01:26:04.029Z,8.77
2018-06-29T01:28:31.935Z,9.27
2018-06-29T01:30:59.789Z,9.00
2018-06-29T01:33:27.873Z,8.43
2018-06-29T01:35:55.894Z,7.67
2018-06-29T01:38:23.780Z,7.50
2018-06-29T01:40:51.806Z,6.97
2018-06-29T01:43:19.727Z,7.20
2018-06-29T01:45:47.573Z,8.73
2018-06-29T01:48:15.382Z,8.87
2018-06-29T01:50:43.332Z,9.03
2018-06-29T01:53:11.293Z,14.50
2018-06-29T01:55:39.214Z,11.20
2018-06-29T01:58:07.013Z,12.90
2018-06-29T02:00:35.947Z,13.33
2018-06-29T02:03:03.708Z,11.80
2018-06-29T02:05:31.489Z,10.80
2018-06-29T02:07:59.215Z,9.30
2018-06-29T02:10:26.961Z,7.80
2018-06-29T02:12:54.855Z,7.70
2018-06-29T02:15:22.728Z,7.67
2018-06-29T02:17:50.461Z,8.43
2018-06-29T02:20:18.404Z,8.53
2018-06-29T02:22:46.297Z,8.33
2018-06-29T02:25:14.165Z,7.67
2018-06-29T02:27:42.039Z,7.23
2018-06-29T02:30:09.958Z,6.83
2018-06-29T02:32:37.785Z,7.10
2018-06-29T02:35:05.638Z,6.90
2018-06-29T02:37:33.638Z,8.20
2018-06-29T02:40:01.394Z,9.83
2018-06-29T02:42:29.188Z,13.20
2018-06-29T02:44:56.936Z,13.90
2018-06-29T02:47:24.772Z,10.20
2018-06-29T02:49:52.692Z,7.50
2018-06-29T02:52:20.570Z,6.97
2018-06-29T02:54:48.370Z,8.43
2018-06-29T02:57:16.104Z,11.37
2018-06-29T02:59:43.946Z,7.53
2018-06-29T03:02:11.850Z,8.10
2018-06-29T03:04:39.648Z,6.80
2018-06-29T03:07:07.612Z,7.73
2018-06-29T03:09:35.402Z,8.83
2018-06-29T03:12:03.301Z,8.30
2018-06-29T03:14:31.333Z,9.00
2018-06-29T03:16:59.229Z,9.60
2018-06-29T03:19:26.969Z,8.23
2018-06-29T03:21:54.922Z,8.77
2018-06-29T03:24:22.794Z,7.17
2018-06-29T03:26:50.626Z,9.60
2018-06-29T03:29:18.529Z,10.50
2018-06-29T03:31:46.426Z,12.63
2018-06-29T03:34:14.301Z,8.67
2018-06-29T03:36:42.044Z,10.40
2018-06-29T03:39:10.813Z,10.33
2018-06-29T03:41:38.650Z,9.60
2018-06-29T03:44:06.574Z,11.60
2018-06-29T03:46:34.819Z,10.20
2018-06-29T03:49:02.658Z,11.97
2018-06-29T03:51:30.820Z,10.47
2018-06-29T03:53:58.833Z,9.33
2018-06-29T03:56:26.802Z,8.83
2018-06-29T03:58:54.602Z,9.07
2018-06-29T04:01:22.632Z,7.90
2018-06-29T04:03:50.626Z,7.33
2018-06-29T04:06:18.588Z,8.17
2018-06-29T04:08:46.590Z,8.83
2018-06-29T04:11:14.514Z,8.70
2018-06-29T04:13:42.551Z,7.90
2018-06-29T04:16:10.515Z,9.23
2018-06-29T04:18:38.425Z,9.30
2018-06-29T04:21:06.329Z,9.93
2018-06-29T04:23:34.226Z,10.20
2018-06-29T04:26:02.060Z,9.97
2018-06-29T04:28:29.860Z,9.97
2018-06-29T04:30:57.682Z,11.20
2018-06-29T04:33:31.202Z,11.63
2018-06-29T04:35:59.020Z,10.67
2018-06-29T04:38:26.742Z,8.97
2018-06-29T04:40:54.712Z,7.00
2018-06-29T04:43:27.326Z,7.43
2018-06-29T04:45:54.982Z,5.73
2018-06-29T04:48:22.872Z,5.27
2018-06-29T04:50:50.784Z,5.20
2018-06-29T04:53:18.825Z,5.70
2018-06-29T04:55:47.550Z,4.13
2018-06-29T04:58:15.456Z,4.60
2018-06-29T05:00:43.255Z,3.60
2018-06-29T05:03:11.201Z,3.60
2018-06-29T05:05:39.072Z,3.80
2018-06-29T05:08:07.096Z,3.80
2018-06-29T05:10:34.884Z,4.30
2018-06-29T05:13:02.815Z,3.70
2018-06-29T05:15:30.846Z,3.70
2018-06-29T05:17:58.754Z,3.90
2018-06-29T05:20:26.470Z,6.93
2018-06-29T05:22:54.621Z,4.30
2018-06-29T05:25:22.546Z,3.97
2018-06-29T05:27:50.379Z,3.97
2018-06-29T05:30:18.490Z,4.17
2018-06-29T05:32:46.357Z,4.87
2018-06-29T05:35:14.462Z,4.10
2018-06-29T05:37:42.380Z,4.77
2018-06-29T05:40:10.503Z,4.43
2018-06-29T05:42:38.402Z,4.40
2018-06-29T05:45:06.431Z,3.70
2018-06-29T05:47:34.406Z,4.30
2018-06-29T05:50:02.288Z,5.23
2018-06-29T05:52:30.309Z,6.57
2018-06-29T05:54:58.229Z,4.70
2018-06-29T05:57:26.141Z,5.63
2018-06-29T05:59:54.056Z,5.70
2018-06-29T06:02:22.192Z,3.97
2018-06-29T06:04:50.094Z,4.00
2018-06-29T06:07:18.082Z,5.50
2018-06-29T06:09:46.083Z,3.80
2018-06-29T06:12:13.988Z,4.40
2018-06-29T06:14:41.979Z,4.60
2018-06-29T06:17:09.871Z,4.40
2018-06-29T06:19:48.956Z,4.93
2018-06-29T06:22:16.829Z,4.50
2018-06-29T06:24:44.682Z,3.70
2018-06-29T06:27:12.538Z,4.23
2018-06-29T06:29:40.505Z,4.67
2018-06-29T06:32:08.473Z,3.90
2018-06-29T06:34:36.342Z,3.33
2018-06-29T06:37:04.257Z,3.20
2018-06-29T06:39:32.122Z,4.23
2018-06-29T06:41:59.982Z,5.30
2018-06-29T06:44:27.909Z,3.27
2018-06-29T06:46:55.874Z,3.47
2018-06-29T06:49:23.915Z,3.10
2018-06-29T06:51:51.902Z,4.33
2018-06-29T06:54:19.717Z,3.40
2018-06-29T06:56:47.602Z,3.47
2018-06-29T06:59:15.560Z,3.52
2018-06-29T07:01:43.356Z,3.20
2018-06-29T07:04:11.201Z,3.27
2018-06-29T07:06:39.055Z,3.37
2018-06-29T07:09:09.591Z,3.52
2018-06-29T07:11:37.360Z,3.10
2018-06-29T07:14:05.328Z,3.62
2018-06-29T07:16:33.210Z,3.20
2018-06-29T07:19:01.068Z,3.40
2018-06-29T07:21:28.976Z,3.60
2018-06-29T07:23:56.934Z,3.45
2018-06-29T07:26:24.989Z,3.15
2018-06-29T07:28:52.963Z,3.27
2018-06-29T07:31:20.681Z,3.35
2018-06-29T07:33:48.521Z,3.30
2018-06-29T07:36:16.840Z,3.95
2018-06-29T07:38:44.804Z,3.40
2018-06-29T07:41:12.640Z,3.10
2018-06-29T07:43:40.566Z,3.13
2018-06-29T07:46:08.718Z,3.20
2018-06-29T07:48:36.565Z,3.50
2018-06-29T07:51:04.357Z,3.53
2018-06-29T07:53:32.298Z,3.60
2018-06-29T07:56:00.222Z,3.30
2018-06-29T07:58:28.241Z,3.80
2018-06-29T08:01:03.017Z,4.20
2018-06-29T08:03:32.497Z,3.70
2018-06-29T08:06:00.370Z,4.07
2018-06-29T08:08:28.707Z,7.20
2018-06-29T08:10:56.802Z,4.97
2018-06-29T08:13:25.471Z,5.07
2018-06-29T08:15:53.732Z,9.50
2018-06-29T08:18:22.213Z,4.17
2018-06-29T08:20:50.381Z,3.70
2018-06-29T08:23:18.263Z,4.10
2018-06-29T08:25:46.114Z,4.17
2018-06-29T08:28:14.035Z,4.37
2018-06-29T08:30:42.153Z,4.07
2018-06-29T08:33:10.129Z,4.73
2018-06-29T08:35:37.989Z,6.60
2018-06-29T08:38:05.981Z,4.60
2018-06-29T08:40:33.755Z,5.13
2018-06-29T08:43:01.704Z,4.20
2018-06-29T08:45:29.668Z,5.30
2018-06-29T08:47:57.658Z,14.70
2018-06-29T08:50:25.723Z,5.40
2018-06-29T08:52:54.033Z,4.77
2018-06-29T08:55:21.947Z,5.40
2018-06-29T08:57:49.869Z,5.17
2018-06-29T09:00:17.764Z,7.00
2018-06-29T09:02:45.755Z,4.57
2018-06-29T09:05:13.658Z,7.43
2018-06-29T09:07:41.652Z,7.03
2018-06-29T09:10:09.569Z,4.97
2018-06-29T09:12:37.549Z,5.03
2018-06-29T09:15:05.467Z,4.83
2018-06-29T09:17:33.402Z,4.63
2018-06-29T09:20:01.251Z,7.60
2018-06-29T09:22:29.048Z,5.40
2018-06-29T09:24:57.277Z,6.77
2018-06-29T09:27:25.088Z,5.00
2018-06-29T09:29:53.019Z,5.00
2018-06-29T09:32:21.111Z,5.60
2018-06-29T09:34:48.949Z,4.90
2018-06-29T09:37:16.838Z,5.17
2018-06-29T09:39:45.477Z,4.50
2018-06-29T09:42:13.387Z,4.90
2018-06-29T09:44:41.358Z,5.10
2018-06-29T09:47:09.125Z,8.90
2018-06-29T09:49:37.184Z,4.70
2018-06-29T09:52:05.133Z,4.07
2018-06-29T09:54:32.997Z,4.47
2018-06-29T09:57:00.926Z,4.30
2018-06-29T09:59:28.907Z,7.30
2018-06-29T10:01:56.852Z,4.53
2018-06-29T10:04:24.729Z,6.30
2018-06-29T10:06:52.671Z,6.30
2018-06-29T10:09:20.493Z,4.07
2018-06-29T10:11:48.622Z,4.37
2018-06-29T10:14:16.606Z,4.90
2018-06-29T10:16:44.441Z,3.77
2018-06-29T10:19:12.478Z,4.67
2018-06-29T10:21:40.470Z,5.13
2018-06-29T10:24:08.475Z,6.37
2018-06-29T10:26:36.325Z,4.77
2018-06-29T10:29:04.314Z,3.60
2018-06-29T10:31:32.176Z,3.93
2018-06-29T10:34:02.459Z,3.93
2018-06-29T10:36:30.292Z,4.20
2018-06-29T10:38:58.225Z,3.70
2018-06-29T10:41:26.221Z,3.37
2018-06-29T10:43:54.173Z,3.47
2018-06-29T10:46:22.049Z,4.33
2018-06-29T10:48:49.923Z,3.50
2018-06-29T10:51:17.984Z,3.00
2018-06-29T10:53:45.966Z,4.93
2018-06-29T10:56:16.297Z,4.00
2018-06-29T10:58:44.706Z,4.20
2018-06-29T11:01:12.751Z,3.67
2018-06-29T11:03:40.862Z,3.13
2018-06-29T11:06:08.790Z,4.20
2018-06-29T11:08:36.701Z,4.03
2018-06-29T11:11:04.796Z,3.30
2018-06-29T11:13:32.624Z,4.17
2018-06-29T11:16:00.504Z,3.27
2018-06-29T11:18:28.451Z,4.13
2018-06-29T11:20:56.382Z,3.40
2018-06-29T11:23:25.399Z,3.40
2018-06-29T11:25:53.381Z,3.03
2018-06-29T11:28:21.419Z,2.97
2018-06-29T11:30:49.521Z,3.00
2018-06-29T11:33:17.892Z,3.23
2018-06-29T11:35:45.827Z,3.37
2018-06-29T11:38:13.764Z,3.20
2018-06-29T11:40:42.072Z,2.70
2018-06-29T11:43:09.894Z,2.70
2018-06-29T11:45:37.698Z,2.60
2018-06-29T11:48:05.841Z,2.33
2018-06-29T11:50:33.564Z,2.23
2018-06-29T11:53:01.491Z,2.27
2018-06-29T11:55:29.450Z,2.30
2018-06-29T11:57:57.233Z,2.70
2018-06-29T12:00:25.243Z,2.40
2018-06-29T12:02:53.114Z,2.17
2018-06-29T12:05:21.249Z,2.60
2018-06-29T12:07:49.345Z,2.30
2018-06-29T12:10:18.066Z,3.40
2018-06-29T12:12:47.439Z,2.50
2018-06-29T12:15:15.340Z,2.60
2018-06-29T12:17:43.228Z,2.40
2018-06-29T12:20:11.074Z,2.73
2018-06-29T12:22:38.983Z,2.50
2018-06-29T12:26:31.298Z,2.40
2018-06-29T12:28:59.249Z,2.30
2018-06-29T12:31:27.049Z,2.40
2018-06-29T12:33:54.970Z,2.30
2018-06-29T12:36:22.919Z,2.57
2018-06-29T12:38:51.147Z,3.20
2018-06-29T12:41:19.268Z,2.40
2018-06-29T12:43:47.157Z,4.03
2018-06-29T12:46:15.199Z,3.57
2018-06-29T12:48:42.890Z,2.80
2018-06-29T12:51:10.760Z,2.60
2018-06-29T12:53:38.804Z,4.80
2018-06-29T12:56:06.884Z,3.40
2018-06-29T12:58:34.843Z,3.20
2018-06-29T13:01:02.786Z,2.67
2018-06-29T13:03:30.777Z,3.87
2018-06-29T13:05:58.844Z,2.70
2018-06-29T13:08:27.243Z,2.60
2018-06-29T13:10:56.003Z,2.40
2018-06-29T13:13:24.265Z,2.70
2018-06-29T13:15:52.245Z,2.87
2018-06-29T13:18:20.621Z,3.93
2018-06-29T13:20:51.516Z,2.80
2018-06-29T13:23:21.019Z,3.20
2018-06-29T13:25:49.592Z,4.63
2018-06-29T13:28:18.391Z,2.77
2018-06-29T13:30:46.521Z,3.13
2018-06-29T13:33:14.350Z,2.93
2018-06-29T13:35:42.353Z,2.50
2018-06-29T13:38:10.294Z,3.97
2018-06-29T13:40:38.268Z,3.03
2018-06-29T13:43:06.288Z,3.53
2018-06-29T13:45:34.755Z,2.40
2018-06-29T13:48:03.084Z,3.07
2018-06-29T13:50:31.795Z,2.10
2018-06-29T13:52:59.672Z,1.97
2018-06-29T13:55:27.554Z,3.00
2018-06-29T13:57:55.662Z,2.23
2018-06-29T14:00:25.118Z,2.00
2018-06-29T14:02:53.328Z,2.20
2018-06-29T14:05:21.358Z,3.07
2018-06-29T14:07:49.509Z,2.03
2018-06-29T14:10:17.554Z,2.30
2018-06-29T14:12:45.565Z,2.10
2018-06-29T14:15:13.501Z,2.33
2018-06-29T14:17:42.371Z,1.90
2018-06-29T14:20:10.299Z,2.20
2018-06-29T14:22:38.281Z,1.87
2018-06-29T14:25:06.402Z,2.07
2018-06-29T14:27:34.358Z,2.23
2018-06-29T14:30:02.227Z,2.30
2018-06-29T14:32:30.489Z,2.40
2018-06-29T14:34:58.833Z,2.23
2018-06-29T14:37:27.023Z,2.30
2018-06-29T14:39:54.877Z,2.10
2018-06-29T14:42:22.823Z,2.43
2018-06-29T14:44:50.981Z,2.23
2018-06-29T14:47:18.933Z,2.00
2018-06-29T14:49:46.914Z,2.83
2018-06-29T14:52:14.977Z,2.00
2018-06-29T14:54:42.978Z,3.10
2018-06-29T14:57:11.856Z,2.23
2018-06-29T14:59:40.072Z,1.80
2018-06-29T15:02:08.315Z,2.40
2018-06-29T15:04:36.338Z,1.90
2018-06-29T15:07:05.815Z,2.30
2018-06-29T15:09:33.857Z,2.13
2018-06-29T15:12:01.941Z,2.47
2018-06-29T15:14:30.801Z,2.23
2018-06-29T15:16:58.840Z,2.20
2018-06-29T15:19:27.607Z,2.20
2018-06-29T15:21:55.810Z,2.23
2018-06-29T15:24:23.700Z,1.90
2018-06-29T15:26:51.869Z,2.30
2018-06-29T15:29:20.020Z,2.53
2018-06-29T15:31:48.145Z,2.43
2018-06-29T15:34:30.321Z,3.10
2018-06-29T15:37:01.516Z,2.50
2018-06-29T15:39:29.409Z,2.10
2018-06-29T15:41:57.392Z,2.20
2018-06-29T15:44:25.383Z,2.10
2018-06-29T15:46:53.348Z,1.77
2018-06-29T15:49:21.621Z,2.07
2018-06-29T15:51:49.861Z,2.03
2018-06-29T15:54:17.902Z,1.90
2018-06-29T15:56:45.924Z,2.07
2018-06-29T15:59:13.888Z,1.80
2018-06-29T16:01:41.618Z,1.77
2018-06-29T16:04:09.554Z,2.00
2018-06-29T16:06:37.641Z,1.50
2018-06-29T16:09:07.576Z,1.70
2018-06-29T16:11:35.635Z,1.60
2018-06-29T16:14:03.620Z,1.60
2018-06-29T16:16:31.390Z,1.70
2018-06-29T16:18:59.438Z,1.63
2018-06-29T16:21:27.294Z,1.30
2018-06-29T16:23:55.274Z,1.90
2018-06-29T16:26:23.360Z,1.40
2018-06-29T16:28:51.466Z,1.43
2018-06-29T16:31:19.448Z,1.57
2018-06-29T16:33:47.473Z,1.50
2018-06-29T16:36:15.449Z,1.53
2018-06-29T16:38:44.369Z,1.60
2018-06-29T16:41:12.281Z,1.80
2018-06-29T16:43:40.185Z,1.90
2018-06-29T16:46:08.198Z,2.00
2018-06-29T16:48:36.455Z,1.80
2018-06-29T16:51:04.375Z,2.40
2018-06-29T16:53:50.902Z,2.30
2018-06-29T16:56:19.253Z,2.30
2018-06-29T16:58:47.982Z,2.23
2018-06-29T17:01:21.957Z,2.93
2018-06-29T17:03:50.601Z,3.07
2018-06-29T17:06:18.895Z,2.67
2018-06-29T17:08:55.449Z,3.10
2018-06-29T17:11:23.391Z,2.70
2018-06-29T17:13:52.489Z,3.00
2018-06-29T17:16:20.545Z,3.43
2018-06-29T17:18:48.729Z,3.60
2018-06-29T17:21:16.396Z,3.50
2018-06-29T17:23:44.347Z,2.90
2018-06-29T17:26:12.415Z,2.70
2018-06-29T17:28:40.350Z,3.40
2018-06-29T17:31:08.567Z,4.83
2018-06-29T17:33:36.789Z,4.20
2018-06-29T17:36:04.853Z,3.80
2018-06-29T17:38:32.786Z,3.70
2018-06-29T17:41:00.613Z,3.00
2018-06-29T17:43:28.473Z,2.40
2018-06-29T17:45:57.790Z,2.60
2018-06-29T17:48:25.722Z,3.20
2018-06-29T17:50:53.920Z,4.90
2018-06-29T17:53:21.917Z,5.13
2018-06-29T17:55:49.851Z,3.93
2018-06-29T17:58:18.441Z,4.53
2018-06-29T18:00:48.894Z,3.23
2018-06-29T18:03:16.794Z,3.20
2018-06-29T18:05:44.693Z,2.50
2018-06-29T18:08:14.733Z,3.00
2018-06-29T18:10:42.965Z,4.37
2018-06-29T18:13:10.986Z,3.93
2018-06-29T18:15:39.005Z,2.83
2018-06-29T18:18:06.913Z,3.30
2018-06-29T18:20:38.981Z,3.70
2018-06-29T18:23:06.928Z,3.07
2018-06-29T18:25:41.103Z,3.20
2018-06-29T18:28:08.970Z,3.17
2018-06-29T18:30:36.819Z,2.60
2018-06-29T18:33:08.850Z,2.67
2018-06-29T18:35:36.756Z,2.23
2018-06-29T18:38:04.755Z,2.80
2018-06-29T18:40:34.798Z,3.37
2018-06-29T18:43:03.158Z,2.80
2018-06-29T18:45:31.328Z,2.70
2018-06-29T18:47:59.387Z,2.57
2018-06-29T18:50:32.165Z,2.87
2018-06-29T18:53:00.138Z,2.70
2018-06-29T18:55:27.931Z,2.70
2018-06-29T18:57:55.892Z,2.90
2018-06-29T19:00:23.900Z,2.87
2018-06-29T19:02:52.013Z,2.60
2018-06-29T19:05:20.843Z,2.80
2018-06-29T19:07:49.782Z,3.00
2018-06-29T19:10:18.339Z,2.60
2018-06-29T19:12:46.500Z,2.90
2018-06-29T19:15:14.458Z,2.53
2018-06-29T19:17:45.463Z,2.40
2018-06-29T19:20:14.898Z,2.53
2018-06-29T19:22:42.986Z,2.40
2018-06-29T19:25:10.752Z,2.87
2018-06-29T19:27:38.880Z,2.40
2018-06-29T19:30:06.993Z,2.40
2018-06-29T19:32:34.951Z,2.47
2018-06-29T19:35:02.948Z,2.53
2018-06-29T19:37:30.837Z,2.60
2018-06-29T19:39:59.056Z,2.70
2018-06-29T19:42:26.795Z,2.97
2018-06-29T19:44:54.732Z,3.87
2018-06-29T19:47:22.764Z,4.43
2018-06-29T19:49:50.958Z,3.60
2018-06-29T19:52:18.806Z,3.40
2018-06-29T19:54:46.736Z,2.70
2018-06-29T19:57:14.806Z,3.00
2018-06-29T19:59:42.607Z,3.10
2018-06-29T20:02:10.788Z,3.00
2018-06-29T20:04:38.810Z,3.00
2018-06-29T20:07:06.813Z,3.00
2018-06-29T20:09:34.794Z,3.00
2018-06-29T20:12:02.857Z,2.73
2018-06-29T20:14:30.895Z,2.83
2018-06-29T20:16:58.759Z,2.80
2018-06-29T20:19:26.794Z,3.03
2018-06-29T20:21:54.844Z,2.80
2018-06-29T20:24:22.710Z,3.07
2018-06-29T20:26:50.759Z,2.77
2018-06-29T20:29:18.660Z,3.00
2018-06-29T20:31:46.762Z,2.70
2018-06-29T20:34:14.740Z,2.60
2018-06-29T20:36:42.895Z,2.37
2018-06-29T20:39:11.898Z,3.17
2018-06-29T20:41:39.838Z,3.30
2018-06-29T20:44:08.218Z,3.77
2018-06-29T20:46:36.260Z,4.37
2018-06-29T20:49:04.356Z,5.07
2018-06-29T20:51:32.486Z,6.00
2018-06-29T20:54:00.556Z,5.03
2018-06-29T20:56:28.556Z,5.60
2018-06-29T20:58:56.558Z,6.27
2018-06-29T21:01:24.521Z,6.67
2018-06-29T21:03:52.559Z,6.20
2018-06-29T21:06:20.518Z,7.20
2018-06-29T21:08:48.896Z,7.43
2018-06-29T21:11:16.895Z,7.00
2018-06-29T21:13:44.903Z,7.23
2018-06-29T21:16:12.760Z,6.83
2018-06-29T21:18:40.813Z,7.47
2018-06-29T21:21:08.928Z,7.30
2018-06-29T21:23:36.943Z,6.87
2018-06-29T21:26:04.797Z,7.00
2018-06-29T21:28:32.893Z,7.20
2018-06-29T21:31:00.921Z,7.47
2018-06-29T21:33:28.787Z,6.83
2018-06-29T21:35:56.733Z,6.30
2018-06-29T21:38:28.122Z,5.97
2018-06-29T21:40:56.117Z,6.47
2018-06-29T21:43:24.139Z,6.23
2018-06-29T21:45:52.060Z,6.47
2018-06-29T21:48:20.024Z,6.30
2018-06-29T21:50:48.027Z,6.60
2018-06-29T21:53:15.930Z,6.20
2018-06-29T21:55:44.058Z,6.23
2018-06-29T21:58:12.057Z,5.80
2018-06-29T22:00:40.568Z,7.17
2018-06-29T22:03:10.314Z,7.80
2018-06-29T22:05:38.820Z,7.73
2018-06-29T22:08:08.122Z,7.23
2018-06-29T22:10:36.068Z,6.33
2018-06-29T22:13:04.169Z,6.73
2018-06-29T22:15:32.312Z,6.70
2018-06-29T22:18:00.173Z,6.60
2018-06-29T22:20:29.069Z,6.83
2018-06-29T22:22:56.913Z,5.83
2018-06-29T22:25:24.707Z,6.90
2018-06-29T22:27:52.440Z,5.90
2018-06-29T22:30:20.718Z,5.90
2018-06-29T22:32:48.743Z,5.80
2018-06-29T22:35:16.947Z,5.83
2018-06-29T22:37:45.269Z,5.17
2018-06-29T22:40:13.261Z,5.43
2018-06-29T22:42:41.245Z,5.60
2018-06-29T22:45:09.228Z,5.30
2018-06-29T22:47:37.127Z,5.43
2018-06-29T22:50:05.185Z,5.03
2018-06-29T22:52:33.068Z,5.37
2018-06-29T22:55:01.075Z,5.80
2018-06-29T22:57:28.988Z,5.37
2018-06-29T22:59:56.832Z,5.70
2018-06-29T23:02:24.566Z,5.10
2018-06-29T23:04:52.328Z,4.60
2018-06-29T23:07:20.290Z,4.50
2018-06-29T23:09:48.162Z,4.07
2018-06-29T23:12:15.959Z,4.20
2018-06-29T23:14:43.805Z,4.00
2018-06-29T23:17:11.634Z,4.07
2018-06-29T23:19:39.410Z,4.10
2018-06-29T23:22:07.350Z,4.10
2018-06-29T23:24:35.234Z,4.40
2018-06-29T23:27:03.084Z,4.23
2018-06-29T23:29:30.958Z,4.27
2018-06-29T23:31:58.911Z,4.40
2018-06-29T23:34:27.107Z,4.90
2018-06-29T23:36:55.043Z,4.70
2018-06-29T23:42:15.844Z,4.63
2018-06-29T23:44:43.823Z,4.00
2018-06-29T23:47:11.754Z,3.90
2018-06-29T23:49:39.693Z,4.30
2018-06-29T23:52:07.572Z,4.37
2018-06-29T23:54:35.383Z,4.23
2018-06-29T23:57:06.567Z,5.03
2018-06-29T23:59:34.381Z,4.30
